Martinez, CA

7:17 AM PDT on September 22, 2014 (GMT -0700)
Napa County | Change Station
CLOSE
Current Station
Airport
Location: Napa County,
Elevation: 33 ft
Nearby Weather Stations

Elev 33 ft 38.21 °N, 122.28 °W | Updated 23 minutes ago

Overcast
Overcast
60 °F
Feels Like 60 °F
N
5
Wind Variable Wind from North

Today
High -- | Low -- °F
--% Chance of Precip.
Yesterday
High -- | Low -- °F
Precip. -- in
6:56 AM 7:05 PM
Waning Crescent, 3% visible
Pressure 29.97 in
Visibility 10.0 miles
Clouds Overcast 1100 ft
Dew Point 57 °F
Humidity 90%
Rainfall 0.00 in
Snow Depth 1 in , 0 in , 0 in
UV 0 out of 12
Pollen 3.70 out of 12
Ozone Good
PM2.5 Good
Flu Activity Not available.
METAR KAPC 221354Z AUTO 35004KT 10SM OVC011 16/14 A3000 RMK AO2 SLP149 T01560139

More Conditions Fewer Conditions

Pressure 29.97 in
Visibility 10.0 miles
Clouds Overcast 1100 ft
Dew Point 57 °F
Humidity 90%
Rainfall 0.00 in
Snow Depth 1 in , 0 in , 0 in
UV 0 out of 12
Pollen 3.70 out of 12
Ozone Good
PM2.5 Good
Flu Activity Not available.
METAR KAPC 221354Z AUTO 35004KT 10SM OVC011 16/14 A3000 RMK AO2 SLP149 T01560139

More Conditions Fewer Conditions

10-Day Weather Forecast

Almanac

Astronomy

Sep. 22, 2014 Rise Set
Actual Time 6:56 AM PDT 7:05 PM PDT
Civil Twilight 6:30 AM PDT 7:31 PM PDT
Nautical Twilight 5:59 AM PDT 8:02 PM PDT
Astronomical Twilight 5:28 AM PDT 8:33 PM PDT
Moon 5:31 AM PDT 6:15 PM PDT
Length of Visible Light 13h 01m
Length of Day
12h 08m
Tomorrow will be 2m 26s shorter.
Waning Crescent, 3% of the Moon is Illuminated
Today
Waning Crescent
Sep 24
New
Oct 1
First Quarter
Oct 8
Full
Oct 15
Last Quarter

Today's Extremes

State Highs State Lows

Community

WunderPhotos

Upload Photos

1,755,444 photos uploaded!

WunderBlogs® & News

By Dr. Jeff Masters
Director of Meteorology, Weather Underground
By Kari Strenfel
Meteorologist, Weather Underground
By Christopher C. Burt
Weather Historian, Weather Underground
September 22, 2014
September 22, 2014
September 22, 2014

Nearby

Air Quality

  Air Quality AQ Index Pollutant
Yesterday Good
OZONE
Yesterday Good
PM2.5
Current Good
OZONE
Current Good
PM2.5
Monday Good
OZONE
Tuesday Good
OZONE
Wednesday Good
OZONE
Thursday Good
OZONE
Friday Good
OZONE

Snow Depth

Station Depth Elevation
Echo Peak 1 in 7800 ft
Tahoe City Cross 0 in 6750 ft
Fallen Leaf 0 in 6300 ft
Summit Meadow 1 in 9122 ft
Spratt Creek 1 in 6200 ft

Earthquake Activity

City Distance Mag. Time & Date
Sonoma, California 26 miles 2.7 1:17 PM PDT
2014-09-21
Cloverdale, California 70 miles 2.5 9:15 PM PDT
2014-09-20
Livermore, California 31 miles 2.6 3:37 AM PDT
2014-09-19
Minimum magnitude displayed is 2.5.

Coastal Water Temperatures

Place Temperature
San Francisco, CA 66.0 °F
Richmond, CA 66.9 °F
Port Chicago, CA 69.1 °F

Nearby Weather Stations